sensor_id;sensor_type;location;lat;lon;timestamp;P1;durP1;ratioP1;P2;durP2;ratioP2
25731;SDS011;13585;50.864;4.406;2023-01-01T00:01:27;3.50;;;1.75;;
25731;SDS011;13585;50.864;4.406;2023-01-01T00:03:55;3.50;;;1.67;;
25731;SDS011;13585;50.864;4.406;2023-01-01T00:06:22;4.72;;;1.85;;
25731;SDS011;13585;50.864;4.406;2023-01-01T00:08:48;4.10;;;1.95;;
25731;SDS011;13585;50.864;4.406;2023-01-01T00:11:34;2.55;;;1.92;;
25731;SDS011;13585;50.864;4.406;2023-01-01T00:14:00;5.45;;;1.98;;
25731;SDS011;13585;50.864;4.406;2023-01-01T00:16:25;5.68;;;1.80;;
25731;SDS011;13585;50.864;4.406;2023-01-01T00:18:51;3.88;;;1.70;;
25731;SDS011;13585;50.864;4.406;2023-01-01T00:21:17;4.68;;;2.33;;
25731;SDS011;13585;50.864;4.406;2023-01-01T00:23:43;3.67;;;1.80;;
25731;SDS011;13585;50.864;4.406;2023-01-01T00:26:12;3.85;;;1.92;;
25731;SDS011;13585;50.864;4.406;2023-01-01T00:31:10;5.20;;;2.03;;
25731;SDS011;13585;50.864;4.406;2023-01-01T00:33:37;3.03;;;1.90;;
25731;SDS011;13585;50.864;4.406;2023-01-01T00:36:06;7.28;;;2.05;;
25731;SDS011;13585;50.864;4.406;2023-01-01T00:38:40;2.97;;;1.88;;
25731;SDS011;13585;50.864;4.406;2023-01-01T00:41:07;3.28;;;1.55;;
25731;SDS011;13585;50.864;4.406;2023-01-01T00:43:33;3.80;;;1.92;;
25731;SDS011;13585;50.864;4.406;2023-01-01T00:45:59;5.28;;;2.20;;
25731;SDS011;13585;50.864;4.406;2023-01-01T00:48:26;2.58;;;1.70;;
25731;SDS011;13585;50.864;4.406;2023-01-01T00:50:51;4.10;;;1.83;;
25731;SDS011;13585;50.864;4.406;2023-01-01T00:53:18;3.53;;;2.10;;
25731;SDS011;13585;50.864;4.406;2023-01-01T00:55:45;3.83;;;2.17;;
25731;SDS011;13585;50.864;4.406;2023-01-01T00:58:12;3.05;;;2.10;;
25731;SDS011;13585;50.864;4.406;2023-01-01T01:00:39;4.55;;;1.77;;
25731;SDS011;13585;50.864;4.406;2023-01-01T01:03:05;3.08;;;1.92;;
25731;SDS011;13585;50.864;4.406;2023-01-01T01:05:31;4.38;;;2.00;;
25731;SDS011;13585;50.864;4.406;2023-01-01T01:07:57;2.70;;;1.67;;
25731;SDS011;13585;50.864;4.406;2023-01-01T01:10:23;3.35;;;1.88;;
25731;SDS011;13585;50.864;4.406;2023-01-01T01:12:50;3.33;;;1.90;;
25731;SDS011;13585;50.864;4.406;2023-01-01T01:15:16;4.95;;;1.98;;
25731;SDS011;13585;50.864;4.406;2023-01-01T01:17:43;6.03;;;1.60;;
25731;SDS011;13585;50.864;4.406;2023-01-01T01:20:08;3.60;;;1.83;;
25731;SDS011;13585;50.864;4.406;2023-01-01T01:22:34;3.30;;;1.70;;
25731;SDS011;13585;50.864;4.406;2023-01-01T01:25:00;3.78;;;1.95;;
25731;SDS011;13585;50.864;4.406;2023-01-01T01:27:26;3.25;;;1.70;;
25731;SDS011;13585;50.864;4.406;2023-01-01T01:29:51;4.72;;;2.03;;
25731;SDS011;13585;50.864;4.406;2023-01-01T01:32:17;3.97;;;2.13;;
25731;SDS011;13585;50.864;4.406;2023-01-01T01:34:43;4.60;;;1.75;;
25731;SDS011;13585;50.864;4.406;2023-01-01T01:37:10;2.70;;;1.70;;
25731;SDS011;13585;50.864;4.406;2023-01-01T01:39:36;4.28;;;1.85;;
25731;SDS011;13585;50.864;4.406;2023-01-01T01:42:02;3.67;;;1.83;;
25731;SDS011;13585;50.864;4.406;2023-01-01T01:44:47;2.13;;;1.50;;
25731;SDS011;13585;50.864;4.406;2023-01-01T01:49:47;2.45;;;1.45;;
25731;SDS011;13585;50.864;4.406;2023-01-01T01:52:19;4.13;;;1.77;;
25731;SDS011;13585;50.864;4.406;2023-01-01T01:54:44;4.28;;;1.60;;
25731;SDS011;13585;50.864;4.406;2023-01-01T01:57:10;3.90;;;1.58;;
25731;SDS011;13585;50.864;4.406;2023-01-01T01:59:39;4.40;;;1.77;;
25731;SDS011;13585;50.864;4.406;2023-01-01T02:02:09;3.50;;;1.48;;
25731;SDS011;13585;50.864;4.406;2023-01-01T02:04:41;4.05;;;1.73;;
25731;SDS011;13585;50.864;4.406;2023-01-01T02:07:08;3.45;;;1.95;;
25731;SDS011;13585;50.864;4.406;2023-01-01T02:09:33;3.22;;;1.80;;
25731;SDS011;13585;50.864;4.406;2023-01-01T02:11:59;1.98;;;1.50;;
25731;SDS011;13585;50.864;4.406;2023-01-01T02:14:25;4.00;;;1.88;;
25731;SDS011;13585;50.864;4.406;2023-01-01T02:16:58;3.08;;;1.77;;
25731;SDS011;13585;50.864;4.406;2023-01-01T02:25:08;1.52;;;1.40;;
25731;SDS011;13585;50.864;4.406;2023-01-01T02:31:21;4.35;;;1.83;;
25731;SDS011;13585;50.864;4.406;2023-01-01T02:33:52;6.68;;;1.83;;
25731;SDS011;13585;50.864;4.406;2023-01-01T02:36:20;2.40;;;1.42;;
25731;SDS011;13585;50.864;4.406;2023-01-01T02:38:50;3.25;;;1.60;;
25731;SDS011;13585;50.864;4.406;2023-01-01T02:41:19;2.90;;;1.60;;
25731;SDS011;13585;50.864;4.406;2023-01-01T02:43:51;2.83;;;1.60;;
25731;SDS011;13585;50.864;4.406;2023-01-01T02:46:17;3.83;;;2.13;;
25731;SDS011;13585;50.864;4.406;2023-01-01T02:48:43;2.58;;;1.33;;
25731;SDS011;13585;50.864;4.406;2023-01-01T02:56:42;3.13;;;1.60;;
25731;SDS011;13585;50.864;4.406;2023-01-01T02:59:46;2.55;;;1.67;;
25731;SDS011;13585;50.864;4.406;2023-01-01T03:05:47;1.73;;;1.42;;
25731;SDS011;13585;50.864;4.406;2023-01-01T03:11:22;2.63;;;1.33;;
25731;SDS011;13585;50.864;4.406;2023-01-01T03:14:00;1.95;;;1.58;;
25731;SDS011;13585;50.864;4.406;2023-01-01T03:16:29;6.20;;;1.77;;
25731;SDS011;13585;50.864;4.406;2023-01-01T03:19:06;4.90;;;1.90;;
25731;SDS011;13585;50.864;4.406;2023-01-01T03:21:39;3.50;;;1.70;;
25731;SDS011;13585;50.864;4.406;2023-01-01T03:24:20;3.17;;;1.80;;
25731;SDS011;13585;50.864;4.406;2023-01-01T03:26:54;2.80;;;1.50;;
25731;SDS011;13585;50.864;4.406;2023-01-01T03:29:23;3.97;;;1.90;;
25731;SDS011;13585;50.864;4.406;2023-01-01T03:31:53;4.32;;;1.85;;
25731;SDS011;13585;50.864;4.406;2023-01-01T03:34:25;3.50;;;1.80;;
25731;SDS011;13585;50.864;4.406;2023-01-01T03:36:55;2.60;;;1.60;;
25731;SDS011;13585;50.864;4.406;2023-01-01T03:39:28;2.22;;;1.20;;
25731;SDS011;13585;50.864;4.406;2023-01-01T03:42:20;2.88;;;1.67;;
25731;SDS011;13585;50.864;4.406;2023-01-01T03:47:34;2.75;;;1.40;;
25731;SDS011;13585;50.864;4.406;2023-01-01T03:50:00;2.58;;;1.60;;
25731;SDS011;13585;50.864;4.406;2023-01-01T03:55:16;3.00;;;1.70;;
25731;SDS011;13585;50.864;4.406;2023-01-01T03:58:00;2.20;;;1.50;;
25731;SDS011;13585;50.864;4.406;2023-01-01T04:00:46;3.35;;;1.40;;
25731;SDS011;13585;50.864;4.406;2023-01-01T04:03:21;2.33;;;1.43;;
25731;SDS011;13585;50.864;4.406;2023-01-01T04:05:49;2.60;;;1.60;;
25731;SDS011;13585;50.864;4.406;2023-01-01T04:08:15;3.15;;;1.52;;
25731;SDS011;13585;50.864;4.406;2023-01-01T04:10:41;1.50;;;1.30;;
25731;SDS011;13585;50.864;4.406;2023-01-01T04:13:09;3.13;;;1.70;;
25731;SDS011;13585;50.864;4.406;2023-01-01T04:15:35;2.88;;;1.50;;
25731;SDS011;13585;50.864;4.406;2023-01-01T04:18:01;2.63;;;1.58;;
25731;SDS011;13585;50.864;4.406;2023-01-01T04:20:26;3.15;;;1.60;;
25731;SDS011;13585;50.864;4.406;2023-01-01T04:22:58;1.90;;;1.40;;
25731;SDS011;13585;50.864;4.406;2023-01-01T04:25:25;2.47;;;1.55;;
25731;SDS011;13585;50.864;4.406;2023-01-01T04:27:51;3.42;;;1.67;;
25731;SDS011;13585;50.864;4.406;2023-01-01T04:30:18;2.67;;;1.58;;
25731;SDS011;13585;50.864;4.406;2023-01-01T04:32:44;2.35;;;1.40;;
25731;SDS011;13585;50.864;4.406;2023-01-01T04:35:10;2.53;;;1.50;;
25731;SDS011;13585;50.864;4.406;2023-01-01T04:37:38;2.83;;;1.85;;
25731;SDS011;13585;50.864;4.406;2023-01-01T04:40:04;2.85;;;1.50;;
25731;SDS011;13585;50.864;4.406;2023-01-01T04:42:31;3.33;;;1.77;;
25731;SDS011;13585;50.864;4.406;2023-01-01T04:44:56;2.45;;;1.60;;
25731;SDS011;13585;50.864;4.406;2023-01-01T04:47:22;2.70;;;1.80;;
25731;SDS011;13585;50.864;4.406;2023-01-01T04:49:48;3.55;;;1.40;;
25731;SDS011;13585;50.864;4.406;2023-01-01T04:52:13;2.83;;;1.60;;
25731;SDS011;13585;50.864;4.406;2023-01-01T04:54:40;3.25;;;1.70;;
25731;SDS011;13585;50.864;4.406;2023-01-01T04:57:06;2.00;;;1.35;;
25731;SDS011;13585;50.864;4.406;2023-01-01T04:59:31;3.03;;;1.63;;
25731;SDS011;13585;50.864;4.406;2023-01-01T05:01:57;3.55;;;1.55;;
25731;SDS011;13585;50.864;4.406;2023-01-01T05:04:23;2.33;;;1.63;;
25731;SDS011;13585;50.864;4.406;2023-01-01T05:06:48;3.45;;;1.63;;
25731;SDS011;13585;50.864;4.406;2023-01-01T05:09:14;3.13;;;1.30;;
25731;SDS011;13585;50.864;4.406;2023-01-01T05:11:40;2.30;;;1.45;;
25731;SDS011;13585;50.864;4.406;2023-01-01T05:14:05;2.22;;;1.58;;
25731;SDS011;13585;50.864;4.406;2023-01-01T05:16:32;4.70;;;1.92;;
25731;SDS011;13585;50.864;4.406;2023-01-01T05:18:59;3.33;;;1.45;;
25731;SDS011;13585;50.864;4.406;2023-01-01T05:21:27;3.13;;;1.45;;
25731;SDS011;13585;50.864;4.406;2023-01-01T05:24:01;3.65;;;1.40;;
25731;SDS011;13585;50.864;4.406;2023-01-01T05:26:30;2.85;;;1.63;;
25731;SDS011;13585;50.864;4.406;2023-01-01T05:28:57;2.22;;;1.70;;
25731;SDS011;13585;50.864;4.406;2023-01-01T05:31:25;3.40;;;1.60;;
25731;SDS011;13585;50.864;4.406;2023-01-01T05:33:53;2.28;;;1.50;;
25731;SDS011;13585;50.864;4.406;2023-01-01T05:36:21;3.67;;;1.55;;
25731;SDS011;13585;50.864;4.406;2023-01-01T05:38:49;3.42;;;1.67;;
25731;SDS011;13585;50.864;4.406;2023-01-01T05:41:15;2.22;;;1.50;;
25731;SDS011;13585;50.864;4.406;2023-01-01T05:43:42;2.45;;;1.40;;
25731;SDS011;13585;50.864;4.406;2023-01-01T05:46:15;3.03;;;1.60;;
25731;SDS011;13585;50.864;4.406;2023-01-01T05:48:42;2.17;;;1.42;;
25731;SDS011;13585;50.864;4.406;2023-01-01T05:51:09;1.98;;;1.33;;
25731;SDS011;13585;50.864;4.406;2023-01-01T05:53:37;2.15;;;1.58;;
25731;SDS011;13585;50.864;4.406;2023-01-01T05:56:03;2.13;;;1.40;;
25731;SDS011;13585;50.864;4.406;2023-01-01T05:58:30;2.70;;;1.55;;
25731;SDS011;13585;50.864;4.406;2023-01-01T06:00:56;2.92;;;1.40;;
25731;SDS011;13585;50.864;4.406;2023-01-01T06:03:28;3.17;;;1.58;;
25731;SDS011;13585;50.864;4.406;2023-01-01T06:05:54;2.55;;;1.65;;
25731;SDS011;13585;50.864;4.406;2023-01-01T06:08:20;1.92;;;1.60;;
25731;SDS011;13585;50.864;4.406;2023-01-01T06:10:45;2.05;;;1.52;;
25731;SDS011;13585;50.864;4.406;2023-01-01T06:13:11;1.90;;;1.27;;
25731;SDS011;13585;50.864;4.406;2023-01-01T06:15:36;4.75;;;1.60;;
25731;SDS011;13585;50.864;4.406;2023-01-01T06:18:02;3.15;;;1.52;;
25731;SDS011;13585;50.864;4.406;2023-01-01T06:20:28;2.17;;;1.45;;
25731;SDS011;13585;50.864;4.406;2023-01-01T06:22:53;2.97;;;1.30;;
25731;SDS011;13585;50.864;4.406;2023-01-01T06:25:19;2.45;;;1.38;;
25731;SDS011;13585;50.864;4.406;2023-01-01T06:27:44;2.97;;;1.52;;
25731;SDS011;13585;50.864;4.406;2023-01-01T06:30:10;2.50;;;1.50;;
25731;SDS011;13585;50.864;4.406;2023-01-01T06:32:36;3.05;;;1.50;;
25731;SDS011;13585;50.864;4.406;2023-01-01T06:35:01;3.70;;;1.40;;
25731;SDS011;13585;50.864;4.406;2023-01-01T06:37:27;4.20;;;1.80;;
25731;SDS011;13585;50.864;4.406;2023-01-01T06:39:53;2.40;;;1.52;;
25731;SDS011;13585;50.864;4.406;2023-01-01T06:42:18;2.25;;;1.20;;
25731;SDS011;13585;50.864;4.406;2023-01-01T06:44:44;2.55;;;1.27;;
25731;SDS011;13585;50.864;4.406;2023-01-01T06:47:09;3.28;;;1.60;;
25731;SDS011;13585;50.864;4.406;2023-01-01T06:49:35;2.13;;;1.33;;
25731;SDS011;13585;50.864;4.406;2023-01-01T06:52:00;3.10;;;1.60;;
25731;SDS011;13585;50.864;4.406;2023-01-01T06:54:26;2.47;;;1.50;;
25731;SDS011;13585;50.864;4.406;2023-01-01T06:56:52;2.00;;;1.33;;
25731;SDS011;13585;50.864;4.406;2023-01-01T06:59:17;2.08;;;1.50;;
25731;SDS011;13585;50.864;4.406;2023-01-01T07:01:43;2.60;;;1.55;;
25731;SDS011;13585;50.864;4.406;2023-01-01T07:04:12;2.92;;;1.30;;
25731;SDS011;13585;50.864;4.406;2023-01-01T07:06:39;2.67;;;1.30;;
25731;SDS011;13585;50.864;4.406;2023-01-01T07:09:05;2.13;;;1.33;;
25731;SDS011;13585;50.864;4.406;2023-01-01T07:11:32;2.28;;;1.55;;
25731;SDS011;13585;50.864;4.406;2023-01-01T07:13:58;3.50;;;1.67;;
25731;SDS011;13585;50.864;4.406;2023-01-01T07:16:23;2.78;;;1.40;;
25731;SDS011;13585;50.864;4.406;2023-01-01T07:18:49;3.40;;;1.38;;
25731;SDS011;13585;50.864;4.406;2023-01-01T07:24:24;3.53;;;1.65;;
25731;SDS011;13585;50.864;4.406;2023-01-01T07:26:50;2.95;;;1.50;;
25731;SDS011;13585;50.864;4.406;2023-01-01T07:29:15;2.55;;;1.35;;
25731;SDS011;13585;50.864;4.406;2023-01-01T07:31:42;1.73;;;1.35;;
25731;SDS011;13585;50.864;4.406;2023-01-01T07:34:10;2.90;;;1.60;;
25731;SDS011;13585;50.864;4.406;2023-01-01T07:36:38;6.65;;;1.77;;
25731;SDS011;13585;50.864;4.406;2023-01-01T07:39:04;3.63;;;1.63;;
25731;SDS011;13585;50.864;4.406;2023-01-01T07:41:29;2.90;;;1.50;;
25731;SDS011;13585;50.864;4.406;2023-01-01T07:43:55;2.28;;;1.50;;
25731;SDS011;13585;50.864;4.406;2023-01-01T07:46:20;2.63;;;1.40;;
25731;SDS011;13585;50.864;4.406;2023-01-01T07:48:46;2.35;;;1.38;;
25731;SDS011;13585;50.864;4.406;2023-01-01T07:51:12;2.35;;;1.40;;
25731;SDS011;13585;50.864;4.406;2023-01-01T07:53:37;1.67;;;1.30;;
25731;SDS011;13585;50.864;4.406;2023-01-01T07:56:03;2.53;;;1.58;;
25731;SDS011;13585;50.864;4.406;2023-01-01T07:58:29;2.53;;;1.50;;
25731;SDS011;13585;50.864;4.406;2023-01-01T08:00:54;1.90;;;1.23;;
25731;SDS011;13585;50.864;4.406;2023-01-01T08:03:20;2.63;;;1.45;;
25731;SDS011;13585;50.864;4.406;2023-01-01T08:05:45;2.67;;;1.55;;
25731;SDS011;13585;50.864;4.406;2023-01-01T08:08:12;1.88;;;1.27;;
25731;SDS011;13585;50.864;4.406;2023-01-01T08:10:38;2.42;;;1.38;;
25731;SDS011;13585;50.864;4.406;2023-01-01T08:13:04;2.78;;;1.52;;
25731;SDS011;13585;50.864;4.406;2023-01-01T08:15:31;1.42;;;1.08;;
25731;SDS011;13585;50.864;4.406;2023-01-01T08:18:01;2.58;;;1.38;;
25731;SDS011;13585;50.864;4.406;2023-01-01T08:20:31;2.47;;;1.60;;
25731;SDS011;13585;50.864;4.406;2023-01-01T08:22:57;2.00;;;1.40;;
25731;SDS011;13585;50.864;4.406;2023-01-01T08:25:23;2.78;;;1.50;;
25731;SDS011;13585;50.864;4.406;2023-01-01T08:27:49;2.00;;;1.30;;
25731;SDS011;13585;50.864;4.406;2023-01-01T08:30:15;3.05;;;1.30;;
25731;SDS011;13585;50.864;4.406;2023-01-01T08:32:41;3.60;;;1.70;;
25731;SDS011;13585;50.864;4.406;2023-01-01T08:35:07;2.45;;;1.42;;
25731;SDS011;13585;50.864;4.406;2023-01-01T08:37:33;3.13;;;1.38;;
25731;SDS011;13585;50.864;4.406;2023-01-01T08:39:58;2.63;;;1.50;;
25731;SDS011;13585;50.864;4.406;2023-01-01T08:42:24;2.83;;;1.50;;
25731;SDS011;13585;50.864;4.406;2023-01-01T08:44:49;2.58;;;1.50;;
25731;SDS011;13585;50.864;4.406;2023-01-01T08:47:16;4.35;;;1.50;;
25731;SDS011;13585;50.864;4.406;2023-01-01T08:49:43;2.80;;;1.42;;
25731;SDS011;13585;50.864;4.406;2023-01-01T08:52:08;1.73;;;1.10;;
25731;SDS011;13585;50.864;4.406;2023-01-01T08:54:34;3.35;;;1.33;;
25731;SDS011;13585;50.864;4.406;2023-01-01T08:57:00;2.55;;;1.58;;
25731;SDS011;13585;50.864;4.406;2023-01-01T08:59:25;3.20;;;1.33;;
25731;SDS011;13585;50.864;4.406;2023-01-01T09:01:51;2.92;;;1.23;;
25731;SDS011;13585;50.864;4.406;2023-01-01T09:04:16;3.05;;;1.30;;
25731;SDS011;13585;50.864;4.406;2023-01-01T09:06:42;3.88;;;1.50;;
25731;SDS011;13585;50.864;4.406;2023-01-01T09:09:07;3.25;;;1.60;;
25731;SDS011;13585;50.864;4.406;2023-01-01T09:11:33;2.80;;;1.60;;
25731;SDS011;13585;50.864;4.406;2023-01-01T09:13:59;2.00;;;1.30;;
25731;SDS011;13585;50.864;4.406;2023-01-01T09:16:24;3.40;;;1.20;;
25731;SDS011;13585;50.864;4.406;2023-01-01T09:18:50;3.10;;;1.90;;
25731;SDS011;13585;50.864;4.406;2023-01-01T09:21:15;2.33;;;1.30;;
25731;SDS011;13585;50.864;4.406;2023-01-01T09:23:41;2.00;;;1.58;;
25731;SDS011;13585;50.864;4.406;2023-01-01T09:26:07;2.00;;;1.50;;
25731;SDS011;13585;50.864;4.406;2023-01-01T09:28:34;2.17;;;1.35;;
25731;SDS011;13585;50.864;4.406;2023-01-01T09:31:00;2.25;;;1.63;;
25731;SDS011;13585;50.864;4.406;2023-01-01T09:33:27;3.22;;;1.55;;
25731;SDS011;13585;50.864;4.406;2023-01-01T09:35:52;3.67;;;1.45;;
25731;SDS011;13585;50.864;4.406;2023-01-01T09:38:18;3.97;;;1.70;;
25731;SDS011;13585;50.864;4.406;2023-01-01T09:46:03;3.00;;;1.40;;
25731;SDS011;13585;50.864;4.406;2023-01-01T09:48:30;3.85;;;1.65;;
25731;SDS011;13585;50.864;4.406;2023-01-01T09:51:02;2.78;;;1.45;;
25731;SDS011;13585;50.864;4.406;2023-01-01T09:53:34;4.40;;;1.65;;
25731;SDS011;13585;50.864;4.406;2023-01-01T09:56:05;3.70;;;1.70;;
25731;SDS011;13585;50.864;4.406;2023-01-01T09:58:38;2.85;;;1.50;;
25731;SDS011;13585;50.864;4.406;2023-01-01T10:06:27;3.90;;;1.90;;
25731;SDS011;13585;50.864;4.406;2023-01-01T10:14:34;2.78;;;1.50;;
25731;SDS011;13585;50.864;4.406;2023-01-01T10:17:16;2.58;;;1.52;;
25731;SDS011;13585;50.864;4.406;2023-01-01T10:19:49;2.22;;;1.50;;
25731;SDS011;13585;50.864;4.406;2023-01-01T10:22:24;3.60;;;1.55;;
25731;SDS011;13585;50.864;4.406;2023-01-01T10:25:12;2.88;;;1.20;;
25731;SDS011;13585;50.864;4.406;2023-01-01T10:30:30;3.67;;;1.60;;
25731;SDS011;13585;50.864;4.406;2023-01-01T10:32:56;2.30;;;1.30;;
25731;SDS011;13585;50.864;4.406;2023-01-01T10:35:23;3.33;;;1.42;;
25731;SDS011;13585;50.864;4.406;2023-01-01T10:38:00;3.30;;;1.27;;
25731;SDS011;13585;50.864;4.406;2023-01-01T10:40:28;3.13;;;1.70;;
25731;SDS011;13585;50.864;4.406;2023-01-01T10:42:55;1.67;;;1.10;;
25731;SDS011;13585;50.864;4.406;2023-01-01T10:45:33;2.25;;;1.40;;
25731;SDS011;13585;50.864;4.406;2023-01-01T10:48:23;2.67;;;1.48;;
25731;SDS011;13585;50.864;4.406;2023-01-01T10:53:24;2.70;;;1.42;;
25731;SDS011;13585;50.864;4.406;2023-01-01T10:56:16;2.35;;;1.45;;
25731;SDS011;13585;50.864;4.406;2023-01-01T10:58:55;3.28;;;1.05;;
25731;SDS011;13585;50.864;4.406;2023-01-01T11:01:29;2.95;;;1.30;;
25731;SDS011;13585;50.864;4.406;2023-01-01T11:03:59;2.78;;;1.50;;
25731;SDS011;13585;50.864;4.406;2023-01-01T11:06:38;2.67;;;1.60;;
25731;SDS011;13585;50.864;4.406;2023-01-01T11:11:46;2.65;;;1.48;;
25731;SDS011;13585;50.864;4.406;2023-01-01T11:14:21;3.25;;;1.50;;
25731;SDS011;13585;50.864;4.406;2023-01-01T11:16:51;2.97;;;1.60;;
25731;SDS011;13585;50.864;4.406;2023-01-01T11:19:33;3.08;;;1.50;;
25731;SDS011;13585;50.864;4.406;2023-01-01T11:22:01;2.90;;;1.50;;
25731;SDS011;13585;50.864;4.406;2023-01-01T11:24:29;3.42;;;1.63;;
25731;SDS011;13585;50.864;4.406;2023-01-01T11:29:47;4.15;;;2.80;;
25731;SDS011;13585;50.864;4.406;2023-01-01T11:32:19;2.75;;;1.90;;
25731;SDS011;13585;50.864;4.406;2023-01-01T11:35:01;2.35;;;1.58;;
25731;SDS011;13585;50.864;4.406;2023-01-01T11:37:30;2.38;;;1.35;;
25731;SDS011;13585;50.864;4.406;2023-01-01T11:40:00;3.05;;;1.50;;
25731;SDS011;13585;50.864;4.406;2023-01-01T11:42:28;3.67;;;1.70;;
25731;SDS011;13585;50.864;4.406;2023-01-01T11:45:02;2.88;;;1.60;;
25731;SDS011;13585;50.864;4.406;2023-01-01T11:47:37;5.63;;;2.00;;
25731;SDS011;13585;50.864;4.406;2023-01-01T11:52:40;3.88;;;1.70;;
25731;SDS011;13585;50.864;4.406;2023-01-01T11:55:10;3.00;;;1.58;;
25731;SDS011;13585;50.864;4.406;2023-01-01T11:57:41;3.42;;;2.00;;
25731;SDS011;13585;50.864;4.406;2023-01-01T12:00:15;6.80;;;2.20;;
25731;SDS011;13585;50.864;4.406;2023-01-01T12:02:43;5.05;;;2.65;;
25731;SDS011;13585;50.864;4.406;2023-01-01T12:07:46;4.20;;;2.00;;
25731;SDS011;13585;50.864;4.406;2023-01-01T12:10:16;4.70;;;2.25;;
25731;SDS011;13585;50.864;4.406;2023-01-01T12:20:51;5.18;;;2.20;;
25731;SDS011;13585;50.864;4.406;2023-01-01T12:23:19;5.95;;;1.90;;
25731;SDS011;13585;50.864;4.406;2023-01-01T12:25:45;4.05;;;2.10;;
25731;SDS011;13585;50.864;4.406;2023-01-01T12:28:37;5.95;;;1.73;;
25731;SDS011;13585;50.864;4.406;2023-01-01T12:31:16;3.03;;;1.80;;
25731;SDS011;13585;50.864;4.406;2023-01-01T12:33:53;3.00;;;1.90;;
25731;SDS011;13585;50.864;4.406;2023-01-01T12:46:55;6.00;;;2.50;;
25731;SDS011;13585;50.864;4.406;2023-01-01T12:55:29;6.78;;;2.50;;
25731;SDS011;13585;50.864;4.406;2023-01-01T12:58:30;5.35;;;2.38;;
25731;SDS011;13585;50.864;4.406;2023-01-01T13:01:03;4.72;;;2.50;;
25731;SDS011;13585;50.864;4.406;2023-01-01T13:03:53;5.20;;;2.30;;
25731;SDS011;13585;50.864;4.406;2023-01-01T13:06:27;7.10;;;2.45;;
25731;SDS011;13585;50.864;4.406;2023-01-01T13:09:13;6.70;;;2.15;;
25731;SDS011;13585;50.864;4.406;2023-01-01T13:11:51;11.75;;;2.20;;
25731;SDS011;13585;50.864;4.406;2023-01-01T13:14:20;4.25;;;1.90;;
25731;SDS011;13585;50.864;4.406;2023-01-01T13:16:55;4.88;;;2.15;;
25731;SDS011;13585;50.864;4.406;2023-01-01T13:19:34;4.68;;;2.50;;
25731;SDS011;13585;50.864;4.406;2023-01-01T13:33:22;6.40;;;2.17;;
25731;SDS011;13585;50.864;4.406;2023-01-01T13:52:09;8.90;;;4.10;;
25731;SDS011;13585;50.864;4.406;2023-01-01T14:04:01;9.38;;;3.40;;
25731;SDS011;13585;50.864;4.406;2023-01-01T14:06:36;9.32;;;3.63;;
25731;SDS011;13585;50.864;4.406;2023-01-01T14:11:36;4.80;;;2.47;;
25731;SDS011;13585;50.864;4.406;2023-01-01T14:14:01;9.50;;;3.20;;
25731;SDS011;13585;50.864;4.406;2023-01-01T14:16:27;7.57;;;2.58;;
25731;SDS011;13585;50.864;4.406;2023-01-01T14:18:55;6.57;;;3.20;;
25731;SDS011;13585;50.864;4.406;2023-01-01T14:21:28;8.45;;;2.70;;
25731;SDS011;13585;50.864;4.406;2023-01-01T14:23:56;9.32;;;3.30;;
25731;SDS011;13585;50.864;4.406;2023-01-01T14:26:26;6.85;;;2.83;;
25731;SDS011;13585;50.864;4.406;2023-01-01T14:28:57;6.95;;;2.50;;
25731;SDS011;13585;50.864;4.406;2023-01-01T14:31:34;7.70;;;3.13;;
25731;SDS011;13585;50.864;4.406;2023-01-01T14:36:51;5.80;;;2.50;;
25731;SDS011;13585;50.864;4.406;2023-01-01T14:39:25;7.32;;;2.60;;
25731;SDS011;13585;50.864;4.406;2023-01-01T14:41:53;5.35;;;2.40;;
25731;SDS011;13585;50.864;4.406;2023-01-01T14:44:23;5.22;;;2.33;;
25731;SDS011;13585;50.864;4.406;2023-01-01T14:46:56;5.25;;;2.78;;
25731;SDS011;13585;50.864;4.406;2023-01-01T14:49:25;5.03;;;2.38;;
25731;SDS011;13585;50.864;4.406;2023-01-01T14:51:59;5.53;;;2.20;;
25731;SDS011;13585;50.864;4.406;2023-01-01T14:54:46;7.28;;;2.55;;
25731;SDS011;13585;50.864;4.406;2023-01-01T14:57:15;5.80;;;2.45;;
25731;SDS011;13585;50.864;4.406;2023-01-01T14:59:51;5.97;;;2.67;;
25731;SDS011;13585;50.864;4.406;2023-01-01T15:02:27;6.05;;;2.85;;
25731;SDS011;13585;50.864;4.406;2023-01-01T15:04:55;5.30;;;2.10;;
25731;SDS011;13585;50.864;4.406;2023-01-01T15:07:28;6.75;;;2.40;;
25731;SDS011;13585;50.864;4.406;2023-01-01T15:09:56;6.75;;;2.38;;
25731;SDS011;13585;50.864;4.406;2023-01-01T15:12:27;3.55;;;2.25;;
25731;SDS011;13585;50.864;4.406;2023-01-01T15:14:53;6.38;;;2.70;;
25731;SDS011;13585;50.864;4.406;2023-01-01T15:17:21;4.85;;;2.17;;
25731;SDS011;13585;50.864;4.406;2023-01-01T15:19:59;4.18;;;2.50;;
25731;SDS011;13585;50.864;4.406;2023-01-01T15:22:28;5.18;;;2.35;;
25731;SDS011;13585;50.864;4.406;2023-01-01T15:24:56;5.78;;;2.38;;
25731;SDS011;13585;50.864;4.406;2023-01-01T15:27:23;5.47;;;2.35;;
25731;SDS011;13585;50.864;4.406;2023-01-01T15:29:53;8.15;;;2.88;;
25731;SDS011;13585;50.864;4.406;2023-01-01T15:32:30;5.30;;;2.40;;
25731;SDS011;13585;50.864;4.406;2023-01-01T15:35:03;5.53;;;2.58;;
25731;SDS011;13585;50.864;4.406;2023-01-01T15:37:50;7.05;;;2.13;;
25731;SDS011;13585;50.864;4.406;2023-01-01T15:47:56;4.75;;;2.15;;
25731;SDS011;13585;50.864;4.406;2023-01-01T15:50:53;5.95;;;2.45;;
25731;SDS011;13585;50.864;4.406;2023-01-01T15:53:26;4.78;;;2.40;;
25731;SDS011;13585;50.864;4.406;2023-01-01T15:56:32;6.55;;;2.42;;
25731;SDS011;13585;50.864;4.406;2023-01-01T15:59:12;4.72;;;2.20;;
25731;SDS011;13585;50.864;4.406;2023-01-01T16:01:51;3.45;;;1.70;;
25731;SDS011;13585;50.864;4.406;2023-01-01T16:04:28;5.22;;;2.25;;
25731;SDS011;13585;50.864;4.406;2023-01-01T16:06:54;3.78;;;1.85;;
25731;SDS011;13585;50.864;4.406;2023-01-01T16:09:21;4.75;;;2.28;;
25731;SDS011;13585;50.864;4.406;2023-01-01T16:11:51;5.00;;;2.50;;
25731;SDS011;13585;50.864;4.406;2023-01-01T16:14:17;3.78;;;2.20;;
25731;SDS011;13585;50.864;4.406;2023-01-01T16:16:44;4.65;;;1.85;;
25731;SDS011;13585;50.864;4.406;2023-01-01T16:19:17;4.65;;;1.90;;
25731;SDS011;13585;50.864;4.406;2023-01-01T16:21:43;3.90;;;1.92;;
25731;SDS011;13585;50.864;4.406;2023-01-01T16:24:18;3.78;;;2.30;;
25731;SDS011;13585;50.864;4.406;2023-01-01T16:26:45;6.35;;;2.00;;
25731;SDS011;13585;50.864;4.406;2023-01-01T16:29:11;4.15;;;1.98;;
25731;SDS011;13585;50.864;4.406;2023-01-01T16:31:37;4.38;;;2.28;;
25731;SDS011;13585;50.864;4.406;2023-01-01T16:34:03;4.25;;;2.13;;
25731;SDS011;13585;50.864;4.406;2023-01-01T16:36:29;5.40;;;2.33;;
25731;SDS011;13585;50.864;4.406;2023-01-01T16:38:55;5.97;;;2.25;;
25731;SDS011;13585;50.864;4.406;2023-01-01T16:41:22;4.95;;;2.17;;
25731;SDS011;13585;50.864;4.406;2023-01-01T16:43:49;4.30;;;2.08;;
25731;SDS011;13585;50.864;4.406;2023-01-01T16:46:14;3.33;;;2.05;;
25731;SDS011;13585;50.864;4.406;2023-01-01T16:48:41;4.07;;;1.92;;
25731;SDS011;13585;50.864;4.406;2023-01-01T16:51:08;5.03;;;1.80;;
25731;SDS011;13585;50.864;4.406;2023-01-01T16:53:42;4.05;;;2.05;;
25731;SDS011;13585;50.864;4.406;2023-01-01T16:56:08;3.95;;;1.92;;
25731;SDS011;13585;50.864;4.406;2023-01-01T16:58:36;3.83;;;1.90;;
25731;SDS011;13585;50.864;4.406;2023-01-01T17:01:01;4.30;;;2.13;;
25731;SDS011;13585;50.864;4.406;2023-01-01T17:03:27;4.07;;;2.00;;
25731;SDS011;13585;50.864;4.406;2023-01-01T17:05:52;2.85;;;1.95;;
25731;SDS011;13585;50.864;4.406;2023-01-01T17:08:18;3.00;;;1.80;;
25731;SDS011;13585;50.864;4.406;2023-01-01T17:10:44;3.35;;;2.13;;
25731;SDS011;13585;50.864;4.406;2023-01-01T17:13:10;6.03;;;2.45;;
25731;SDS011;13585;50.864;4.406;2023-01-01T17:15:36;4.80;;;2.50;;
25731;SDS011;13585;50.864;4.406;2023-01-01T17:18:01;5.85;;;1.90;;
25731;SDS011;13585;50.864;4.406;2023-01-01T17:20:28;5.60;;;2.40;;
25731;SDS011;13585;50.864;4.406;2023-01-01T17:22:54;6.60;;;2.80;;